Etusivu
METAR-TAF:

METAR-TAF

Lentoasemat :

Little Rock Air Force Base

Jacksonville, Arkansas, Yhdysvallat

Leveyspiiri: 34-55N, Pituuspiiri: 092-09W, korkeus merenpinnasta: 95 m

Tämänhetkinen sää

Tämä raportti tehtiin 29 minuuttia sitten, kello 13.56 UTC
Tuuli 3 kn idästä/koillisesta
Lämpötila 11°C
Kosteus 87%
Ilmanpaine 1011 hPa
Näkyvyys: 16.1 km
selkeää

METAR: KLRF 191356Z 06003KT 10SM CLR 11/09 A2984 RMK AO2A SLPNO ALSTG ESTMD $

Aika: 09:25 (14:25 UTC)

Sääennuste

Tämä raportti tehtiin 7 tuntia ja 25 minuuttia sitten, kello 07.00 UTC
Ennuste voimassa 19. päivästä klo 07 UTC - 20. päivään klo 13 UTC
Tuuli 6 kn eri suunnista
Näkyvyys 10 km tai enemmän
Muutamia pilviä 14000 ft:n korkeudessa
Tulossa
20. päivästä klo 02 UTC - 20. päivään klo 03 UTC
Tuuli 6 kn etelästä
Näkyvyys 10 km tai enemmän
Hajonneita pilviä 3000 ft:n korkeudessa

TAF: KLRF 190700Z 1907/2013 VRB06KT 9999 FEW140 QNH2974INS BECMG 2002/2003 18006KT 9999 BKN030 QNH2979INS TX22/1921Z TN06/1912Z

Säähavainnot ja -ennusteet yli 4000 lentoasemalta (METAR- ja TAF-raportit).

Käytössä olevat sääasemat on merkitty karttaan keltaisilla ja punaisilla pisteillä.

Aseta hiiri pisteen päälle nähdäksesi sääaseman nimen.

Klikkaa sitten nähdäksesi säähavainnot ja -ennusteet.

Kartan vaihtaminen: klikkaa mustalla rastilla varustettuja vihreitä pisteitä, niin voit zoomata sisään; viivalla varustettua vihreää pistettä, niin voit zoomata ulos tai vihreitä nuolia, niin pääset viereisille kartoille.


METAR-TAF: